Time;durP1;ratioP1;P1;durP2;ratioP2;P2;SDS_P1;SDS_P2;PMS_P1;PMS_P2;Temp;Humidity;BMP_temperature;BMP_pressure;BME280_temperature;BME280_humidity;BME280_pressure;Samples;Min_cycle;Max_cycle;Signal;HPM_P1;HPM_P2
2021/05/05 00:01:58;;;;;;;;;;;;;;;5.06;100.00;100131.30;1823350;79;20133;-73
2021/05/05 00:04:26;;;;;;;;;;;;;;;5.03;100.00;100134.73;1823323;79;20117;-72
2021/05/05 00:06:56;;;;;;;;;;;;;;;4.97;100.00;100136.62;1823352;79;20133;-73
2021/05/05 00:09:26;;;;;;;;;;;;;;;4.91;100.00;100135.32;1823294;79;20224;-74
2021/05/05 00:11:53;;;;;;;;;;;;;;;4.87;100.00;100143.25;1823514;79;20239;-74
2021/05/05 00:14:21;;;;;;;;;;;;;;;4.84;100.00;100145.71;1823507;79;20473;-74
2021/05/05 00:16:50;;;;;;;;;;;;;;;4.81;100.00;100143.79;1802200;79;20167;-73
2021/05/05 00:19:18;;;;;;;;;;;;;;;4.78;100.00;100138.69;1784511;80;20241;-73
2021/05/05 00:21:45;;;;;;;;;;;;;;;4.74;100.00;100134.08;1784470;80;20220;-74
2021/05/05 00:24:14;;;;;;;;;;;;;;;4.70;100.00;100132.66;1784597;80;20423;-73
2021/05/05 00:26:41;;;;;;;;;;;;;;;4.66;100.00;100134.75;1784427;79;20145;-74
2021/05/05 00:29:10;;;;;;;;;;;;;;;4.61;100.00;100138.80;1783878;80;20153;-73
2021/05/05 00:31:37;;;;;;;;;;;;;;;4.58;100.00;100138.55;1783881;80;20149;-74
2021/05/05 00:34:05;;;;;;;;;;;;;;;4.54;100.00;100138.46;1783773;80;20134;-73
2021/05/05 00:36:32;;;;;;;;;;;;;;;4.51;100.00;100134.20;1783890;79;20138;-74
2021/05/05 00:39:00;;;;;;;;;;;;;;;4.48;100.00;100138.97;1783883;79;20137;-74
2021/05/05 00:41:28;;;;;;;;;;;;;;;4.46;100.00;100139.59;1783862;80;20122;-72
2021/05/05 00:43:55;;;;;;;;;;;;;;;4.43;100.00;100138.53;1783820;80;20118;-73
2021/05/05 00:46:23;;;;;;;;;;;;;;;4.40;100.00;100138.78;1783898;80;20181;-73
2021/05/05 00:48:50;;;;;;;;;;;;;;;4.36;100.00;100132.84;1783938;80;20388;-73
2021/05/05 00:51:17;;;;;;;;;;;;;;;4.34;100.00;100133.46;1783844;80;20131;-73
2021/05/05 00:53:45;;;;;;;;;;;;;;;4.31;100.00;100133.21;1784046;80;20404;-73
2021/05/05 00:56:12;;;;;;;;;;;;;;;4.27;100.00;100135.80;1783816;80;20146;-73
2021/05/05 00:58:41;;;;;;;;;;;;;;;4.23;100.00;100135.66;1783853;80;20497;-73
2021/05/05 01:01:08;;;;;;;;;;;;;;;4.21;100.00;100140.80;1783808;80;20233;-74
2021/05/05 01:03:37;;;;;;;;;;;;;;;4.17;100.00;100130.84;1784000;80;20166;-74
2021/05/05 01:06:05;;;;;;;;;;;;;;;4.14;100.00;100130.62;1783826;79;20134;-72
2021/05/05 01:08:34;;;;;;;;;;;;;;;4.11;100.00;100136.22;1783753;80;20150;-73
2021/05/05 01:11:02;;;;;;;;;;;;;;;4.08;100.00;100129.77;1783751;80;20166;-73
2021/05/05 01:13:31;;;;;;;;;;;;;;;4.05;100.00;100129.18;1783922;80;20118;-73
2021/05/05 01:15:58;;;;;;;;;;;;;;;4.03;100.00;100135.16;1787996;79;20189;-73
2021/05/05 01:18:27;;;;;;;;;;;;;;;4.00;100.00;100141.59;1814336;79;20185;-74
2021/05/05 01:20:56;;;;;;;;;;;;;;;3.97;100.00;100143.20;1814541;79;20134;-73
2021/05/05 01:23:25;;;;;;;;;;;;;;;3.94;100.00;100143.45;1785217;79;20383;-74
2021/05/05 01:25:53;;;;;;;;;;;;;;;3.91;100.00;100150.38;1814306;79;20403;-74
2021/05/05 01:28:21;;;;;;;;;;;;;;;3.90;100.00;100153.55;1814295;79;20153;-74
2021/05/05 01:30:49;;;;;;;;;;;;;;;3.91;100.00;100151.25;1814352;79;20153;-73
2021/05/05 01:33:18;;;;;;;;;;;;;;;3.97;100.00;100141.86;1814411;79;20212;-72
2021/05/05 01:35:49;;;;;;;;;;;;;;;4.01;100.00;100145.14;1785215;79;20153;-73
2021/05/05 01:38:17;;;;;;;;;;;;;;;4.04;100.00;100144.86;1814278;79;20145;-73
2021/05/05 01:40:46;;;;;;;;;;;;;;;4.07;100.00;100140.14;1814427;79;20415;-73
2021/05/05 01:43:13;;;;;;;;;;;;;;;4.09;100.00;100141.31;1814355;79;20138;-73
2021/05/05 01:45:41;;;;;;;;;;;;;;;4.09;100.00;100148.87;1814266;79;20134;-73
2021/05/05 01:48:09;;;;;;;;;;;;;;;4.08;100.00;100146.33;1814282;79;20131;-73
2021/05/05 01:50:37;;;;;;;;;;;;;;;4.08;100.00;100140.97;1814365;79;20118;-73
2021/05/05 01:53:06;;;;;;;;;;;;;;;4.06;100.00;100141.09;1814434;79;20129;-73
2021/05/05 01:55:36;;;;;;;;;;;;;;;4.06;100.00;100142.44;1814346;79;20205;-73
2021/05/05 01:58:06;;;;;;;;;;;;;;;4.06;100.00;100142.94;1814278;79;20224;-73
2021/05/05 02:00:35;;;;;;;;;;;;;;;4.05;100.00;100141.22;1814338;79;20173;-73
2021/05/05 02:03:05;;;;;;;;;;;;;;;4.04;100.00;100139.51;1814533;79;20125;-73
2021/05/05 02:05:34;;;;;;;;;;;;;;;4.04;100.00;100143.52;1713217;83;20264;-73
2021/05/05 02:08:22;;;;;;;;;;;;;;;4.06;100.00;100141.09;1858098;77;20236;-74
2021/05/05 02:10:51;;;;;;;;;;;;;;;4.02;100.00;100144.14;1830291;78;20132;-74
2021/05/05 02:13:22;;;;;;;;;;;;;;;3.99;100.00;100148.77;1830427;78;20397;-74
2021/05/05 02:15:52;;;;;;;;;;;;;;;3.98;100.00;100148.43;1829572;78;20147;-73
2021/05/05 02:18:23;;;;;;;;;;;;;;;3.98;100.00;100148.43;1823131;79;20137;-73
2021/05/05 02:20:51;;;;;;;;;;;;;;;3.96;100.00;100145.00;1823217;79;20418;-73
2021/05/05 02:23:19;;;;;;;;;;;;;;;3.98;100.00;100152.91;1823030;79;20133;-73
2021/05/05 02:25:48;;;;;;;;;;;;;;;3.98;100.00;100156.92;1823020;79;20133;-74
2021/05/05 02:28:16;;;;;;;;;;;;;;;3.98;100.00;100151.57;1822943;79;20137;-74
2021/05/05 02:31:03;;;;;;;;;;;;;;;3.97;100.00;100156.58;1702202;84;20164;-74
2021/05/05 02:33:33;;;;;;;;;;;;;;;3.97;100.00;100150.73;1702310;84;20463;-73
2021/05/05 02:36:00;;;;;;;;;;;;;;;3.99;100.00;100151.95;1702251;84;20448;-73
2021/05/05 02:38:28;;;;;;;;;;;;;;;3.97;100.00;100152.07;1702200;84;20136;-74
2021/05/05 02:40:56;;;;;;;;;;;;;;;3.98;100.00;100149.77;1702137;84;20149;-74
2021/05/05 02:43:24;;;;;;;;;;;;;;;4.02;100.00;100158.86;1702239;84;20183;-73
2021/05/05 02:45:52;;;;;;;;;;;;;;;4.05;100.00;100158.61;1702160;84;20177;-73
2021/05/05 02:48:21;;;;;;;;;;;;;;;4.08;100.00;100162.38;1702185;84;20196;-73
2021/05/05 02:50:48;;;;;;;;;;;;;;;4.11;100.00;100158.97;1702143;84;20203;-74
2021/05/05 02:53:16;;;;;;;;;;;;;;;4.15;100.00;100160.41;1702302;84;20409;-73
2021/05/05 02:55:45;;;;;;;;;;;;;;;4.23;100.00;100165.11;1702099;84;20195;-74
2021/05/05 02:58:12;;;;;;;;;;;;;;;4.27;100.00;100163.90;1702262;84;20207;-72
2021/05/05 03:00:40;;;;;;;;;;;;;;;4.33;100.00;100168.73;1702375;84;20250;-73
2021/05/05 03:03:07;;;;;;;;;;;;;;;4.39;100.00;100168.70;1812220;79;20117;-73
2021/05/05 03:05:35;;;;;;;;;;;;;;;4.44;100.00;100171.84;1823132;79;20165;-72
2021/05/05 03:08:02;;;;;;;;;;;;;;;4.49;100.00;100161.60;1812116;79;20255;-73
2021/05/05 03:10:30;;;;;;;;;;;;;;;4.53;100.00;100168.42;1809035;79;20154;-72
2021/05/05 03:12:58;;;;;;;;;;;;;;;4.56;100.00;100168.14;1808970;79;20130;-73
2021/05/05 03:15:25;;;;;;;;;;;;;;;4.61;100.00;100169.10;1809325;79;20267;-74
2021/05/05 03:17:53;;;;;;;;;;;;;;;4.64;100.00;100172.00;1809624;79;20368;-74
2021/05/05 03:20:21;;;;;;;;;;;;;;;4.66;100.00;100168.23;1808929;79;20158;-73
2021/05/05 03:22:48;;;;;;;;;;;;;;;4.69;100.00;100171.12;1809049;79;20379;-73
2021/05/05 03:25:16;;;;;;;;;;;;;;;4.72;100.00;100174.39;1809119;79;20185;-73
2021/05/05 03:27:43;;;;;;;;;;;;;;;4.75;100.00;100176.81;1808939;79;20126;-73
2021/05/05 03:30:11;;;;;;;;;;;;;;;4.79;100.00;100169.86;1808961;79;20145;-73
2021/05/05 03:32:39;;;;;;;;;;;;;;;4.82;100.00;100174.47;1809205;79;20388;-73
2021/05/05 03:35:07;;;;;;;;;;;;;;;4.86;100.00;100169.70;1808914;79;20134;-74
2021/05/05 03:37:35;;;;;;;;;;;;;;;4.89;100.00;100176.14;1809091;79;20176;-73
2021/05/05 03:40:04;;;;;;;;;;;;;;;4.91;100.00;100172.84;1808999;79;20236;-74
2021/05/05 03:42:32;;;;;;;;;;;;;;;4.94;100.00;100168.06;1809122;79;20220;-73
2021/05/05 03:45:00;;;;;;;;;;;;;;;4.99;100.00;100167.65;1808914;79;20162;-73
2021/05/05 03:47:27;;;;;;;;;;;;;;;5.03;100.00;100167.77;1809156;79;20122;-74
2021/05/05 03:49:55;;;;;;;;;;;;;;;5.07;100.00;100164.33;1808893;79;20157;-73
2021/05/05 03:52:23;;;;;;;;;;;;;;;5.12;100.00;100169.64;1809075;79;20135;-73
2021/05/05 03:54:50;;;;;;;;;;;;;;;5.17;100.00;100170.59;1809107;79;20117;-73
2021/05/05 03:57:17;;;;;;;;;;;;;;;5.22;100.00;100171.02;1809115;79;20122;-73
2021/05/05 03:59:46;;;;;;;;;;;;;;;5.28;100.00;100172.34;1808929;79;20122;-72
2021/05/05 04:02:13;;;;;;;;;;;;;;;5.34;100.00;100171.80;1808895;79;20134;-74
2021/05/05 04:04:41;;;;;;;;;;;;;;;5.40;100.00;100170.40;1808870;79;20134;-73
2021/05/05 04:07:08;;;;;;;;;;;;;;;5.47;100.00;100172.89;1811429;79;20240;-73
2021/05/05 04:09:37;;;;;;;;;;;;;;;5.58;100.00;100173.29;1817712;79;20224;-74
2021/05/05 04:12:05;;;;;;;;;;;;;;;5.68;100.00;100172.84;1817839;79;20129;-73
2021/05/05 04:14:32;;;;;;;;;;;;;;;5.80;100.00;100164.20;1817813;79;20157;-74
2021/05/05 04:17:18;;;;;;;;;;;;;;;5.93;100.00;100168.80;1822041;79;20429;-74
2021/05/05 04:20:05;;;;;;;;;;;;;;;6.07;100.00;100168.47;1824252;79;20135;-74
2021/05/05 04:22:50;;;;;;;;;;;;;;;6.26;100.00;100175.67;1824111;79;20418;-73
2021/05/05 04:25:37;;;;;;;;;;;;;;;6.46;100.00;100168.97;1824014;79;20214;-74
2021/05/05 04:28:04;;;;;;;;;;;;;;;6.65;100.00;100171.64;1824381;79;20222;-74
2021/05/05 04:30:32;;;;;;;;;;;;;;;6.81;100.00;100164.85;1824105;79;20179;-75
2021/05/05 04:32:59;;;;;;;;;;;;;;;6.99;100.00;100168.98;1824276;79;20144;-73
2021/05/05 04:35:27;;;;;;;;;;;;;;;7.14;100.00;100168.89;1824202;79;20143;-74
2021/05/05 04:37:54;;;;;;;;;;;;;;;7.34;100.00;100172.36;1823899;79;20149;-73
2021/05/05 04:40:22;;;;;;;;;;;;;;;7.54;100.00;100180.36;1823954;79;20174;-74
2021/05/05 04:42:49;;;;;;;;;;;;;;;7.74;100.00;100178.45;1823936;79;20132;-73
2021/05/05 04:45:16;;;;;;;;;;;;;;;7.96;100.00;100179.87;1823839;79;20242;-75
2021/05/05 04:47:44;;;;;;;;;;;;;;;8.20;100.00;100183.34;1824150;79;20409;-74
2021/05/05 04:50:13;;;;;;;;;;;;;;;8.47;100.00;100176.23;1824019;79;20143;-75
2021/05/05 04:52:40;;;;;;;;;;;;;;;8.73;100.00;100176.30;1823818;79;20144;-76
2021/05/05 04:55:08;;;;;;;;;;;;;;;8.97;100.00;100180.18;1823969;79;20155;-75
2021/05/05 04:57:36;;;;;;;;;;;;;;;9.16;100.00;100179.98;1823977;79;20152;-75
2021/05/05 05:00:07;;;;;;;;;;;;;;;9.29;100.00;100177.69;1823881;79;20171;-73
2021/05/05 05:02:35;;;;;;;;;;;;;;;9.43;100.00;100183.00;1802627;79;20604;-75
2021/05/05 05:05:04;;;;;;;;;;;;;;;9.66;100.00;100183.28;1802375;80;20157;-73
2021/05/05 05:07:35;;;;;;;;;;;;;;;9.88;100.00;100176.47;1802224;79;20213;-72
2021/05/05 05:10:04;;;;;;;;;;;;;;;10.12;100.00;100182.12;1775821;80;20141;-74
2021/05/05 05:12:33;;;;;;;;;;;;;;;10.35;100.00;100179.66;1802473;80;20142;-74
2021/05/05 05:15:01;;;;;;;;;;;;;;;10.54;100.00;100182.57;1802552;80;20403;-73
2021/05/05 05:17:29;;;;;;;;;;;;;;;10.74;100.00;100183.92;1779070;80;20140;-75
2021/05/05 05:19:57;;;;;;;;;;;;;;;10.96;100.00;100171.59;1771160;81;20219;-78
2021/05/05 05:22:24;;;;;;;;;;;;;;;11.09;100.00;100176.98;1771033;81;20148;-76
2021/05/05 05:24:52;;;;;;;;;;;;;;;11.19;100.00;100172.21;1771214;81;20234;-78
2021/05/05 05:27:19;;;;;;;;;;;;;;;11.39;100.00;100183.53;1771188;81;20140;-76
2021/05/05 05:29:47;;;;;;;;;;;;;;;11.58;100.00;100180.42;1771186;81;20152;-75
2021/05/05 05:32:14;;;;;;;;;;;;;;;11.69;100.00;100175.14;1779336;79;20231;-74
2021/05/05 05:34:43;;;;;;;;;;;;;;;11.74;100.00;100182.23;1788639;79;20211;-76
2021/05/05 05:37:11;;;;;;;;;;;;;;;11.84;100.00;100182.53;1784035;79;20141;-74
2021/05/05 05:39:38;;;;;;;;;;;;;;;11.98;100.00;100175.56;1780085;80;20449;-70
2021/05/05 05:42:06;;;;;;;;;;;;;;;12.00;100.00;100177.06;1786628;80;20152;-73
2021/05/05 05:44:34;;;;;;;;;;;;;;;12.04;100.00;100180.26;1776560;80;20143;-74
2021/05/05 05:47:02;;;;;;;;;;;;;;;12.17;100.00;100175.64;1770794;81;20245;-76
2021/05/05 05:49:30;;;;;;;;;;;;;;;12.34;100.00;100175.84;1771197;81;20409;-75
2021/05/05 05:51:58;;;;;;;;;;;;;;;12.46;100.00;100173.05;1781450;80;20248;-75
2021/05/05 05:54:25;;;;;;;;;;;;;;;12.61;100.00;100170.95;1783949;80;20515;-75
2021/05/05 05:56:53;;;;;;;;;;;;;;;12.68;100.00;100173.27;1778043;80;20429;-73
2021/05/05 05:59:21;;;;;;;;;;;;;;;12.70;100.00;100170.69;1797820;79;20295;-73
2021/05/05 06:01:49;;;;;;;;;;;;;;;12.77;100.00;100169.45;1832536;78;20175;-73
2021/05/05 06:04:17;;;;;;;;;;;;;;;12.87;100.00;100165.11;1843634;78;20193;-76
2021/05/05 06:06:45;;;;;;;;;;;;;;;12.96;100.00;100160.45;1843996;77;20155;-76
2021/05/05 06:09:13;;;;;;;;;;;;;;;13.11;100.00;100168.12;1825283;78;20559;-72
2021/05/05 06:11:40;;;;;;;;;;;;;;;13.32;100.00;100156.58;1803753;79;20165;-71
2021/05/05 06:14:08;;;;;;;;;;;;;;;13.64;100.00;100162.67;1795399;79;20135;-71
2021/05/05 06:16:36;;;;;;;;;;;;;;;13.92;100.00;100158.76;1804465;78;20265;-74
2021/05/05 06:19:05;;;;;;;;;;;;;;;14.12;100.00;100162.23;1811303;79;20166;-75
2021/05/05 06:21:32;;;;;;;;;;;;;;;14.23;100.00;100163.91;1799962;79;20181;-71
2021/05/05 06:24:03;;;;;;;;;;;;;;;14.30;100.00;100161.27;1801962;79;20296;-71
2021/05/05 06:26:30;;;;;;;;;;;;;;;14.40;100.00;100160.98;1784665;79;20307;-74
2021/05/05 06:28:59;;;;;;;;;;;;;;;14.36;100.00;100158.30;1802234;79;20243;-71
2021/05/05 06:31:28;;;;;;;;;;;;;;;14.41;100.00;100152.63;1807845;77;20417;-74
2021/05/05 06:33:55;;;;;;;;;;;;;;;14.63;100.00;100153.19;1792161;79;20292;-72
2021/05/05 06:36:25;;;;;;;;;;;;;;;14.75;100.00;100154.31;1806753;79;20191;-77
2021/05/05 06:38:53;;;;;;;;;;;;;;;14.91;100.00;100152.70;1809603;79;20287;-76
2021/05/05 06:41:22;;;;;;;;;;;;;;;15.12;100.00;100151.82;1807328;79;20237;-72
2021/05/05 06:43:50;;;;;;;;;;;;;;;15.30;100.00;100158.13;1806815;79;20252;-73
2021/05/05 06:46:18;;;;;;;;;;;;;;;15.49;100.00;100154.34;1795002;79;20516;-74
2021/05/05 06:48:46;;;;;;;;;;;;;;;15.69;100.00;100155.84;1802168;79;20296;-73
2021/05/05 06:51:13;;;;;;;;;;;;;;;15.64;100.00;100156.97;1806026;79;20165;-75
2021/05/05 06:53:41;;;;;;;;;;;;;;;15.65;100.00;100146.37;1809144;79;20174;-71
2021/05/05 06:56:09;;;;;;;;;;;;;;;15.73;100.00;100145.68;1785850;79;20239;-73
2021/05/05 06:58:37;;;;;;;;;;;;;;;15.86;100.00;100143.56;1803811;79;20240;-74
2021/05/05 07:01:04;;;;;;;;;;;;;;;15.98;100.00;100139.73;1804571;79;20122;-75
2021/05/05 07:03:32;;;;;;;;;;;;;;;16.14;100.00;100127.63;1804464;79;20142;-75
2021/05/05 07:06:01;;;;;;;;;;;;;;;16.08;100.00;100140.73;1810559;79;20192;-76
2021/05/05 07:08:30;;;;;;;;;;;;;;;15.93;99.40;100140.34;1812657;79;20181;-73
2021/05/05 07:11:00;;;;;;;;;;;;;;;15.77;100.00;100143.95;1797966;79;20261;-74
2021/05/05 07:13:28;;;;;;;;;;;;;;;15.69;100.00;100140.32;1805709;79;20391;-76
2021/05/05 07:15:56;;;;;;;;;;;;;;;15.89;100.00;100140.97;1816517;79;20212;-74
2021/05/05 07:18:24;;;;;;;;;;;;;;;16.24;100.00;100130.80;1809510;79;20260;-74
2021/05/05 07:20:52;;;;;;;;;;;;;;;16.63;100.00;100125.09;1810842;79;20165;-72
2021/05/05 07:23:19;;;;;;;;;;;;;;;16.76;99.00;100118.80;1807690;79;20499;-74
2021/05/05 07:25:47;;;;;;;;;;;;;;;16.73;97.76;100126.56;1791889;80;20261;-73
2021/05/05 07:28:15;;;;;;;;;;;;;;;16.69;98.38;100117.95;1803069;79;20125;-76
2021/05/05 07:30:42;;;;;;;;;;;;;;;16.60;100.00;100113.75;1772981;80;20230;-76
2021/05/05 07:33:12;;;;;;;;;;;;;;;16.47;100.00;100124.14;1723444;82;20189;-73
2021/05/05 07:35:47;;;;;;;;;;;;;;;16.40;100.00;100122.75;1719738;82;20160;-75
2021/05/05 07:46:23;;;;;;;;;;;;;;;16.17;96.17;100110.85;1733040;82;20144;-76
2021/05/05 07:48:54;;;;;;;;;;;;;;;16.54;96.76;100114.57;1777693;80;20162;-74
2021/05/05 07:51:22;;;;;;;;;;;;;;;16.70;93.92;100119.11;1782516;80;20235;-73
2021/05/05 07:53:49;;;;;;;;;;;;;;;16.61;90.78;100114.91;1775941;80;20274;-72
2021/05/05 07:56:16;;;;;;;;;;;;;;;16.51;93.32;100109.02;1750464;82;20181;-72
2021/05/05 07:58:44;;;;;;;;;;;;;;;16.56;92.45;100098.31;1747435;82;20198;-72
2021/05/05 08:01:12;;;;;;;;;;;;;;;16.69;91.95;100105.67;1751118;82;20189;-73
2021/05/05 08:03:43;;;;;;;;;;;;;;;16.78;91.31;100092.65;1761608;81;20181;-72
2021/05/05 08:06:11;;;;;;;;;;;;;;;17.00;91.39;100087.31;1759658;81;20439;-73
2021/05/05 08:08:40;;;;;;;;;;;;;;;17.18;89.87;100098.94;1759488;81;20200;-72
2021/05/05 08:11:08;;;;;;;;;;;;;;;17.35;87.25;100100.70;1755887;81;20403;-74
2021/05/05 08:13:35;;;;;;;;;;;;;;;17.53;85.08;100089.59;1761715;81;20221;-70
2021/05/05 08:16:03;;;;;;;;;;;;;;;17.75;85.25;100071.84;1757669;81;20185;-73
2021/05/05 08:18:31;;;;;;;;;;;;;;;17.84;84.23;100080.63;1743374;81;20251;-72
2021/05/05 08:21:02;;;;;;;;;;;;;;;17.91;80.58;100081.47;1717771;82;20196;-71
2021/05/05 08:23:30;;;;;;;;;;;;;;;17.74;82.82;100081.63;1752851;81;20266;-70
2021/05/05 08:25:57;;;;;;;;;;;;;;;17.91;83.46;100082.84;1756935;81;20175;-70
2021/05/05 08:28:25;;;;;;;;;;;;;;;18.18;81.58;100075.84;1761985;81;20268;-68
2021/05/05 08:30:52;;;;;;;;;;;;;;;18.26;83.26;100088.45;1762843;81;20248;-72
2021/05/05 08:33:20;;;;;;;;;;;;;;;18.45;78.58;100066.08;1762713;81;20387;-71
2021/05/05 08:35:48;;;;;;;;;;;;;;;18.77;80.61;100072.38;1761851;81;20184;-72
2021/05/05 08:38:15;;;;;;;;;;;;;;;19.06;77.90;100072.76;1744327;81;20191;-70
2021/05/05 08:40:43;;;;;;;;;;;;;;;19.04;73.92;100071.61;1739807;81;20240;-70
2021/05/05 08:43:12;;;;;;;;;;;;;;;18.90;74.87;100076.91;1698870;82;20193;-75
2021/05/05 08:45:41;;;;;;;;;;;;;;;18.84;76.86;100064.10;1688867;82;20472;-73
2021/05/05 08:48:09;;;;;;;;;;;;;;;18.78;73.77;100069.92;1737941;82;20214;-76
2021/05/05 08:50:38;;;;;;;;;;;;;;;18.72;73.04;100061.25;1731245;82;20397;-73
2021/05/05 08:53:06;;;;;;;;;;;;;;;18.42;78.62;100060.53;1727884;82;20333;-75
2021/05/05 08:55:35;;;;;;;;;;;;;;;18.36;78.64;100069.11;1733985;82;20241;-73
2021/05/05 08:58:04;;;;;;;;;;;;;;;18.38;79.62;100060.14;1721339;81;20140;-77
2021/05/05 09:00:33;;;;;;;;;;;;;;;18.42;80.73;100059.70;1735596;83;20210;-74
2021/05/05 09:03:02;;;;;;;;;;;;;;;18.63;82.22;100065.30;1725021;83;20676;-78
2021/05/05 09:05:53;;;;;;;;;;;;;;;18.94;80.17;100066.63;1730748;83;20173;-76
2021/05/05 09:08:21;;;;;;;;;;;;;;;19.04;74.04;100058.45;1730716;83;20431;-75
2021/05/05 09:10:54;;;;;;;;;;;;;;;19.02;75.94;100057.84;1710335;83;20149;-74
2021/05/05 09:13:44;;;;;;;;;;;;;;;19.03;77.54;100045.80;1706877;84;20560;-76
2021/05/05 09:16:16;;;;;;;;;;;;;;;19.07;75.81;100049.75;1728585;81;20145;-75
2021/05/05 09:18:57;;;;;;;;;;;;;;;19.15;77.79;100050.84;1686468;83;20189;-76
2021/05/05 09:21:36;;;;;;;;;;;;;;;19.19;75.12;100051.22;1708049;83;20457;-77
2021/05/05 09:24:23;;;;;;;;;;;;;;;18.95;79.85;100035.98;1724193;83;20242;-76
2021/05/05 09:27:03;;;;;;;;;;;;;;;19.10;80.90;100040.55;1707723;83;20221;-75
2021/05/05 09:29:46;;;;;;;;;;;;;;;19.34;75.01;100034.70;1732408;83;20346;-76
2021/05/05 09:32:15;;;;;;;;;;;;;;;19.25;73.11;100037.45;1731404;83;20408;-77
2021/05/05 09:34:56;;;;;;;;;;;;;;;19.27;75.26;100039.42;1712726;83;20279;-75
2021/05/05 09:37:25;;;;;;;;;;;;;;;19.32;75.62;100042.86;1716414;82;20289;-73
2021/05/05 09:40:08;;;;;;;;;;;;;;;19.15;76.06;100039.88;1722104;83;20484;-74
2021/05/05 09:42:36;;;;;;;;;;;;;;;19.08;77.60;100030.34;1619412;88;20203;-76
2021/05/05 09:45:07;;;;;;;;;;;;;;;19.04;78.39;100022.28;1634510;87;20390;-74
2021/05/05 09:47:59;;;;;;;;;;;;;;;19.33;82.27;100030.81;1632924;87;20351;-75
2021/05/05 09:50:42;;;;;;;;;;;;;;;19.60;77.28;100015.39;1617502;89;20236;-75
2021/05/05 09:53:17;;;;;;;;;;;;;;;19.57;79.79;100022.73;1631894;87;20353;-78
2021/05/05 09:56:00;;;;;;;;;;;;;;;19.65;78.02;100029.26;1646785;87;20546;-80
2021/05/05 09:58:30;;;;;;;;;;;;;;;19.81;74.70;100020.95;1646128;87;20234;-83
2021/05/05 10:03:52;;;;;;;;;;;;;;;20.13;71.02;100004.23;1796258;79;20250;-77
2021/05/05 10:06:30;;;;;;;;;;;;;;;19.77;72.19;100019.75;1764970;81;20235;-76
2021/05/05 10:09:00;;;;;;;;;;;;;;;19.46;74.19;100021.58;1758525;81;20444;-76
2021/05/05 10:11:30;;;;;;;;;;;;;;;19.39;79.17;100025.80;1759825;81;20173;-77
2021/05/05 10:14:04;;;;;;;;;;;;;;;19.62;76.71;100007.26;1751269;81;20124;-77
2021/05/05 10:16:36;;;;;;;;;;;;;;;19.87;74.37;100020.04;1757532;81;20172;-74
2021/05/05 10:19:04;;;;;;;;;;;;;;;19.73;68.33;100008.38;1768634;81;20239;-73
2021/05/05 10:21:33;;;;;;;;;;;;;;;19.36;71.69;100018.02;1754050;81;20151;-74
2021/05/05 10:24:00;;;;;;;;;;;;;;;19.31;73.69;100013.76;1742489;82;20139;-75
2021/05/05 10:26:28;;;;;;;;;;;;;;;19.38;72.33;100006.83;1747654;81;20152;-73
2021/05/05 10:28:56;;;;;;;;;;;;;;;19.29;73.84;100003.02;1772645;81;20200;-73
2021/05/05 10:31:27;;;;;;;;;;;;;;;18.96;76.12;100011.61;1771965;81;20144;-76
2021/05/05 10:33:57;;;;;;;;;;;;;;;18.75;78.35;100003.25;1741766;81;20134;-74
2021/05/05 10:36:39;;;;;;;;;;;;;;;18.66;80.38;100000.51;1742843;82;20174;-72
2021/05/05 10:39:19;;;;;;;;;;;;;;;18.81;81.22;100001.00;1742835;82;20272;-75
2021/05/05 10:42:05;;;;;;;;;;;;;;;18.79;77.55;99993.55;1742731;82;20193;-74
2021/05/05 10:44:41;;;;;;;;;;;;;;;18.57;81.56;99991.23;1742376;81;20232;-74
2021/05/05 10:47:23;;;;;;;;;;;;;;;18.68;81.50;99999.75;1742742;82;20134;-75
2021/05/05 10:50:07;;;;;;;;;;;;;;;19.13;75.22;99994.05;1743118;82;20135;-77
2021/05/05 10:52:44;;;;;;;;;;;;;;;19.40;72.63;99993.19;1742699;82;20502;-72
2021/05/05 10:55:13;;;;;;;;;;;;;;;19.36;72.36;99983.76;1744556;82;20139;-75
2021/05/05 10:57:41;;;;;;;;;;;;;;;19.04;78.33;99990.77;1743338;81;20154;-71
2021/05/05 11:00:13;;;;;;;;;;;;;;;18.90;80.95;99994.73;1719870;82;20160;-70
2021/05/05 11:02:51;;;;;;;;;;;;;;;19.05;78.19;99988.86;1730820;82;20140;-75
2021/05/05 11:05:32;;;;;;;;;;;;;;;19.16;80.15;99987.58;1715342;83;20592;-71
2021/05/05 11:08:02;;;;;;;;;;;;;;;19.18;80.91;99977.77;1700917;83;20183;-73
2021/05/05 11:10:37;;;;;;;;;;;;;;;19.10;81.26;99989.84;1748018;81;20168;-74
2021/05/05 11:13:24;;;;;;;;;;;;;;;18.97;80.74;99977.14;1749151;82;20148;-74
2021/05/05 11:15:56;;;;;;;;;;;;;;;18.84;84.92;99973.70;1749253;81;20436;-74
2021/05/05 11:18:35;;;;;;;;;;;;;;;18.90;82.38;99975.55;1764398;81;20244;-74
2021/05/05 11:26:20;;;;;;;;;;;;;;;19.06;80.89;99961.23;1858138;77;20129;-73
2021/05/05 11:29:01;;;;;;;;;;;;;;;18.91;85.08;99957.52;1830113;78;20255;-75
2021/05/05 11:31:53;;;;;;;;;;;;;;;18.80;84.20;99967.81;1827469;78;20179;-74
2021/05/05 11:34:25;;;;;;;;;;;;;;;19.00;89.30;99957.20;1816530;78;20157;-74
2021/05/05 11:37:02;;;;;;;;;;;;;;;19.47;80.33;99950.61;1818151;79;20117;-74
2021/05/05 11:39:33;;;;;;;;;;;;;;;19.63;78.92;99947.20;1820901;79;20140;-79
2021/05/05 11:42:12;;;;;;;;;;;;;;;19.85;78.34;99939.87;1820440;79;20138;-78
2021/05/05 11:44:50;;;;;;;;;;;;;;;20.14;75.92;99935.38;1818593;79;20182;-75
2021/05/05 11:47:21;;;;;;;;;;;;;;;20.60;75.00;99932.35;1820075;79;20185;-77
2021/05/05 11:49:53;;;;;;;;;;;;;;;20.89;70.72;99934.38;1818829;79;20395;-78
2021/05/05 11:52:27;;;;;;;;;;;;;;;21.03;70.85;99934.41;1752478;81;20486;-78
2021/05/05 11:55:03;;;;;;;;;;;;;;;20.86;72.01;99929.67;1751855;81;20208;-76
2021/05/05 11:57:32;;;;;;;;;;;;;;;20.85;70.59;99921.66;1751897;82;20173;-76
2021/05/05 12:00:14;;;;;;;;;;;;;;;20.92;69.91;99921.53;1752124;82;20142;-74
2021/05/05 12:02:47;;;;;;;;;;;;;;;21.00;70.73;99930.77;1753841;82;20178;-76
2021/05/05 12:05:31;;;;;;;;;;;;;;;20.80;69.56;99922.92;1753023;82;20158;-77
2021/05/05 12:08:18;;;;;;;;;;;;;;;20.44;72.73;99921.55;1844880;78;20263;-80
2021/05/05 12:10:51;;;;;;;;;;;;;;;20.17;72.49;99923.94;1809657;79;20170;-77
2021/05/05 12:13:25;;;;;;;;;;;;;;;20.07;76.50;99916.27;1809069;79;20169;-78
2021/05/05 12:15:59;;;;;;;;;;;;;;;20.26;76.30;99925.25;1807683;79;20145;-79
2021/05/05 12:18:37;;;;;;;;;;;;;;;20.24;74.56;99920.54;1783523;80;21001;-73
2021/05/05 12:21:12;;;;;;;;;;;;;;;20.02;74.35;99918.88;1792620;79;20153;-74
2021/05/05 12:23:50;;;;;;;;;;;;;;;19.73;76.28;99922.83;1748174;82;20146;-72
2021/05/05 12:26:24;;;;;;;;;;;;;;;19.39;81.10;99913.39;1748642;82;20195;-71
2021/05/05 12:28:56;;;;;;;;;;;;;;;19.22;83.01;99920.03;1747920;82;20374;-74
2021/05/05 12:31:32;;;;;;;;;;;;;;;19.21;84.24;99905.19;1819408;77;20384;-73
2021/05/05 12:34:03;;;;;;;;;;;;;;;19.17;86.15;99904.81;1804968;78;20265;-74
2021/05/05 12:36:32;;;;;;;;;;;;;;;19.44;86.09;99901.70;1797225;80;20213;-70
2021/05/05 12:39:07;;;;;;;;;;;;;;;19.87;84.08;99896.02;1760735;81;20156;-75
2021/05/05 12:41:47;;;;;;;;;;;;;;;20.47;78.46;99890.05;1869980;76;20505;-73
2021/05/05 12:44:15;;;;;;;;;;;;;;;20.78;72.25;99898.98;1815736;79;20195;-74
2021/05/05 12:49:36;;;;;;;;;;;;;;;20.58;73.42;99893.30;1692621;85;20263;-74
2021/05/05 12:52:08;;;;;;;;;;;;;;;20.09;75.11;99889.42;1693188;85;20247;-74
2021/05/05 12:57:16;;;;;;;;;;;;;;;19.85;80.87;99882.26;1819885;78;20497;-72
2021/05/05 12:59:47;;;;;;;;;;;;;;;19.98;79.05;99877.08;1788274;80;20155;-71
2021/05/05 13:02:24;;;;;;;;;;;;;;;20.10;75.68;99882.88;1788547;80;20716;-73
2021/05/05 13:05:03;;;;;;;;;;;;;;;19.85;77.21;99883.09;1788366;80;20132;-73
2021/05/05 13:07:34;;;;;;;;;;;;;;;19.58;76.86;99877.67;1786872;80;20385;-73
2021/05/05 13:33:09;;;;;;;;;;;;;;;20.82;70.08;99861.17;1791848;79;20301;-73
2021/05/05 13:35:51;;;;;;;;;;;;;;;20.71;66.93;99872.18;1798630;79;20184;-73
2021/05/05 13:38:30;;;;;;;;;;;;;;;20.42;69.43;99866.58;1799663;79;20221;-71